Terminal Aerodrome Forecast
Issued by NWS

Home | Current Version | Previous Version | Text Only | Print | Product List | Glossary On
Versions: 1 2 3 4 5 6 7 8 9 10 11 12 13 14 15 16 17 18 19 20 21 22 23 24 25 26 27 28 29 30 31 32 33 34 35 36 37 38 39 40 41 42 43 44 45 46
000
FTUS44 KLIX 231736
TAFHUM
TAF
KHUM 231736Z 2318/2418 13005KT P6SM SKC
     FM240600 16007KT 3SM BR BKN008
     FM240800 16006KT 1SM BR BKN003
     FM241500 18007KT P6SM OVC025=

USA.gov is the U.S. government's official web portal to all federal, state and local government web resources and services.